Time;durP1;ratioP1;P1;durP2;ratioP2;P2;SDS_P1;SDS_P2;PMS_P1;PMS_P2;Temp;Humidity;BMP_temperature;BMP_pressure;BME280_temperature;BME280_humidity;BME280_pressure;Samples;Min_cycle;Max_cycle;Signal;HPM_P1;HPM_P2
2022/03/03 00:00:57;;;;;;;25.42;12.40;;;4.40;64.90;;;;;;4971457;28;20031;-71
2022/03/03 00:03:23;;;;;;;25.15;11.77;;;4.30;64.20;;;;;;4972096;28;20469;-71
2022/03/03 00:05:48;;;;;;;29.83;12.65;;;4.20;64.40;;;;;;4971884;28;20027;-71
2022/03/03 00:08:14;;;;;;;29.55;12.75;;;4.20;64.90;;;;;;4971395;28;20122;-71
2022/03/03 00:10:40;;;;;;;25.30;13.20;;;4.20;65.10;;;;;;4971527;28;20192;-71
2022/03/03 00:13:05;;;;;;;20.38;11.82;;;4.10;64.70;;;;;;4971677;28;20038;-71
2022/03/03 00:15:34;;;;;;;27.25;12.48;;;4.10;65.00;;;;;;4986846;28;20038;-70
2022/03/03 00:18:00;;;;;;;28.27;12.98;;;4.10;65.20;;;;;;4971656;28;20136;-71
2022/03/03 00:20:26;;;;;;;23.33;12.52;;;4.10;65.30;;;;;;4971243;28;20155;-71
2022/03/03 00:22:51;;;;;;;30.08;12.60;;;4.10;65.50;;;;;;4971416;28;20114;-70
2022/03/03 00:25:17;;;;;;;28.45;12.70;;;4.00;65.60;;;;;;4971487;28;20030;-72
2022/03/03 00:27:43;;;;;;;28.48;13.18;;;4.00;65.90;;;;;;4971414;28;20239;-71
2022/03/03 00:30:09;;;;;;;28.95;13.30;;;4.00;66.10;;;;;;4971836;28;20034;-71
2022/03/03 00:32:40;;;;;;;27.85;13.13;;;3.80;66.60;;;;;;4971634;28;20114;-73
2022/03/03 00:35:10;;;;;;;28.67;12.90;;;3.80;66.90;;;;;;4971331;28;20058;-72
2022/03/03 00:37:36;;;;;;;28.95;13.25;;;3.80;67.10;;;;;;4990615;28;20046;-71
2022/03/03 00:40:03;;;;;;;27.02;14.18;;;3.80;67.20;;;;;;4990619;28;20034;-70
2022/03/03 00:42:28;;;;;;;26.48;13.82;;;3.70;67.80;;;;;;4989925;28;20038;-70
2022/03/03 00:44:54;;;;;;;26.05;13.52;;;3.70;67.10;;;;;;4990881;28;20353;-71
2022/03/03 00:47:19;;;;;;;32.38;15.25;;;3.70;67.30;;;;;;4990422;28;20389;-70
2022/03/03 00:49:45;;;;;;;36.58;14.52;;;3.70;67.30;;;;;;4990887;28;20316;-70
2022/03/03 00:52:11;;;;;;;34.95;12.77;;;3.60;67.60;;;;;;4990637;28;20097;-71
2022/03/03 00:54:36;;;;;;;27.52;14.38;;;3.60;67.90;;;;;;4990483;28;20341;-70
2022/03/03 00:57:02;;;;;;;29.65;14.38;;;3.70;68.20;;;;;;4990190;28;20355;-72
2022/03/03 00:59:27;;;;;;;29.25;15.20;;;3.70;68.50;;;;;;4990470;28;20423;-72
2022/03/03 01:01:53;;;;;;;27.58;13.75;;;3.70;68.70;;;;;;4992908;28;20030;-71
2022/03/03 01:04:19;;;;;;;28.63;13.90;;;3.70;68.20;;;;;;4994523;28;20386;-70
2022/03/03 01:06:45;;;;;;;31.83;13.75;;;3.90;67.80;;;;;;4994062;28;20030;-70
2022/03/03 01:09:10;;;;;;;26.30;13.43;;;4.00;68.10;;;;;;4994646;28;20053;-71
2022/03/03 01:11:36;;;;;;;24.70;12.98;;;4.00;67.70;;;;;;4994134;28;20058;-70
2022/03/03 01:14:02;;;;;;;31.95;14.32;;;4.00;67.60;;;;;;4994034;28;20112;-71
2022/03/03 01:16:27;;;;;;;33.13;13.70;;;3.80;67.90;;;;;;4994035;28;20053;-71
2022/03/03 01:18:53;;;;;;;30.80;15.18;;;3.70;68.20;;;;;;4994205;28;20139;-71
2022/03/03 01:21:18;;;;;;;25.80;13.95;;;3.80;67.90;;;;;;4994206;28;20026;-69
2022/03/03 01:23:44;;;;;;;27.77;13.35;;;3.70;68.30;;;;;;4993829;28;20038;-70
2022/03/03 01:26:09;;;;;;;31.58;13.93;;;3.60;68.30;;;;;;4993706;28;20035;-70
2022/03/03 01:28:35;;;;;;;29.60;14.95;;;3.60;68.70;;;;;;4993613;28;20065;-71
2022/03/03 01:31:00;;;;;;;29.52;14.32;;;3.50;69.50;;;;;;4993806;28;20072;-69
2022/03/03 01:33:26;;;;;;;29.58;12.93;;;3.50;70.20;;;;;;4994025;28;20037;-72
2022/03/03 01:35:52;;;;;;;31.13;13.77;;;3.50;70.30;;;;;;4993520;28;20117;-71
2022/03/03 01:38:17;;;;;;;31.73;13.98;;;3.40;70.20;;;;;;4993574;28;20038;-71
2022/03/03 01:40:43;;;;;;;34.10;14.25;;;3.50;70.60;;;;;;4993466;28;20030;-71
2022/03/03 01:43:08;;;;;;;28.42;14.23;;;3.40;70.60;;;;;;4993556;28;20041;-71
2022/03/03 01:45:34;;;;;;;27.50;13.48;;;3.40;70.40;;;;;;4993990;28;20077;-71
2022/03/03 01:48:00;;;;;;;27.15;14.05;;;3.60;69.90;;;;;;4993475;28;20195;-72
2022/03/03 01:50:26;;;;;;;29.63;13.85;;;3.60;70.10;;;;;;4993399;28;20376;-72
2022/03/03 01:52:51;;;;;;;28.48;13.77;;;3.50;70.50;;;;;;4993425;28;20041;-72
2022/03/03 01:55:17;;;;;;;26.80;13.48;;;3.40;71.00;;;;;;4992345;28;20424;-71
2022/03/03 01:57:43;;;;;;;31.73;13.13;;;3.40;70.20;;;;;;4993166;28;20022;-72
2022/03/03 02:00:09;;;;;;;27.95;12.93;;;3.60;70.70;;;;;;4993790;28;20372;-70
2022/03/03 02:02:35;;;;;;;27.08;13.68;;;3.40;71.20;;;;;;4993358;28;20031;-71
2022/03/03 02:05:00;;;;;;;29.05;13.80;;;3.30;71.30;;;;;;4992421;28;20081;-71
2022/03/03 02:07:26;;;;;;;29.42;14.25;;;3.30;71.60;;;;;;4992907;28;20043;-72
2022/03/03 02:09:52;;;;;;;30.10;13.75;;;3.20;71.30;;;;;;4993215;28;20034;-71
2022/03/03 02:12:17;;;;;;;23.13;13.52;;;3.30;71.30;;;;;;4992684;28;20026;-71
2022/03/03 02:14:49;;;;;;;30.15;13.82;;;3.20;71.20;;;;;;4992828;28;20034;-72
2022/03/03 02:17:16;;;;;;;30.05;14.27;;;3.20;71.00;;;;;;4975682;28;20023;-72
2022/03/03 02:19:42;;;;;;;33.58;15.15;;;3.20;71.20;;;;;;4993030;28;20122;-71
2022/03/03 02:22:08;;;;;;;28.35;13.90;;;3.20;71.20;;;;;;4992833;28;20030;-72
2022/03/03 02:24:35;;;;;;;29.17;13.88;;;3.20;71.10;;;;;;4993222;28;20600;-72
2022/03/03 02:27:02;;;;;;;34.28;13.77;;;3.30;70.80;;;;;;4992561;28;20326;-72
2022/03/03 02:29:29;;;;;;;32.83;16.25;;;3.20;71.40;;;;;;4992546;28;20034;-71
2022/03/03 02:31:55;;;;;;;30.88;13.82;;;3.20;71.90;;;;;;4992782;28;20364;-71
2022/03/03 02:34:21;;;;;;;30.48;14.75;;;3.10;72.30;;;;;;4992646;28;20030;-71
2022/03/03 02:36:46;;;;;;;25.73;12.88;;;3.20;72.20;;;;;;5023677;28;20050;-71
2022/03/03 02:39:12;;;;;;;30.60;15.07;;;3.20;71.70;;;;;;5032447;28;20108;-72
2022/03/03 02:41:38;;;;;;;27.42;13.88;;;3.20;72.50;;;;;;5031757;28;20052;-71
2022/03/03 02:44:04;;;;;;;26.00;13.38;;;3.10;72.80;;;;;;5032119;28;20022;-71
2022/03/03 02:46:30;;;;;;;26.25;13.65;;;3.20;72.80;;;;;;5031790;28;20029;-71
2022/03/03 02:48:57;;;;;;;28.50;14.38;;;3.10;72.80;;;;;;5013859;28;20043;-72
2022/03/03 02:51:22;;;;;;;27.58;14.27;;;3.10;73.10;;;;;;5014554;28;20029;-72
2022/03/03 02:53:48;;;;;;;30.70;13.82;;;3.10;73.00;;;;;;5031555;28;20029;-70
2022/03/03 02:56:14;;;;;;;28.70;14.57;;;3.20;72.90;;;;;;5031514;28;20488;-70
2022/03/03 02:58:40;;;;;;;26.25;13.50;;;3.20;72.70;;;;;;5031415;28;20038;-70
2022/03/03 03:01:06;;;;;;;29.50;13.82;;;3.20;73.10;;;;;;5013811;28;20067;-70
2022/03/03 03:03:32;;;;;;;30.75;13.52;;;3.10;73.00;;;;;;5032140;28;20068;-70
2022/03/03 03:05:58;;;;;;;24.23;13.43;;;3.00;73.30;;;;;;5031410;28;20109;-71
2022/03/03 03:08:23;;;;;;;28.80;14.10;;;3.00;73.50;;;;;;5031353;28;20128;-71
2022/03/03 03:10:49;;;;;;;24.17;13.13;;;3.00;73.50;;;;;;5031409;28;20033;-71
2022/03/03 03:13:15;;;;;;;29.33;14.10;;;2.90;73.40;;;;;;5031378;28;20033;-72
2022/03/03 03:15:44;;;;;;;29.05;13.48;;;3.10;73.50;;;;;;5013601;28;20032;-71
2022/03/03 03:18:15;;;;;;;22.85;13.25;;;3.00;73.00;;;;;;5031593;28;20380;-70
2022/03/03 03:20:43;;;;;;;27.10;15.00;;;3.00;73.10;;;;;;5031723;28;20130;-70
2022/03/03 03:23:11;;;;;;;30.42;14.85;;;3.00;73.20;;;;;;5031143;28;20038;-70
2022/03/03 03:25:37;;;;;;;30.27;13.88;;;2.90;73.60;;;;;;5030989;28;20072;-71
2022/03/03 03:28:05;;;;;;;31.80;14.63;;;2.90;73.60;;;;;;5030915;28;20120;-72
2022/03/03 03:30:31;;;;;;;27.83;15.00;;;2.80;73.40;;;;;;5031440;28;20069;-70
2022/03/03 03:32:56;;;;;;;37.53;15.93;;;2.80;73.50;;;;;;5030862;28;20037;-70
2022/03/03 03:35:23;;;;;;;27.27;13.52;;;2.80;73.80;;;;;;5030470;28;20045;-71
2022/03/03 03:37:49;;;;;;;26.73;13.98;;;2.80;73.60;;;;;;5030628;28;20135;-72
2022/03/03 03:40:15;;;;;;;25.92;14.13;;;2.80;73.70;;;;;;5030667;28;20029;-71
2022/03/03 03:42:41;;;;;;;30.45;14.63;;;2.80;74.00;;;;;;5031312;28;20458;-70
2022/03/03 03:45:08;;;;;;;31.25;14.55;;;2.70;74.50;;;;;;5031085;28;20021;-71
2022/03/03 03:47:33;;;;;;;32.40;13.75;;;2.70;74.30;;;;;;5030372;28;20467;-71
2022/03/03 03:50:02;;;;;;;29.63;13.90;;;2.80;74.70;;;;;;5030502;28;20079;-70
2022/03/03 03:52:28;;;;;;;28.80;13.93;;;2.70;75.00;;;;;;5030512;28;20025;-70
2022/03/03 03:54:54;;;;;;;28.98;14.60;;;2.60;75.00;;;;;;5030496;28;20059;-71
2022/03/03 03:57:19;;;;;;;29.90;14.23;;;2.80;75.30;;;;;;5030908;28;20025;-71
2022/03/03 03:59:45;;;;;;;29.17;14.93;;;2.70;75.10;;;;;;5030615;28;20364;-71
2022/03/03 04:02:10;;;;;;;30.05;15.38;;;2.80;75.20;;;;;;5030368;28;20025;-72
2022/03/03 04:04:36;;;;;;;30.52;14.10;;;2.60;75.50;;;;;;5030633;28;20407;-73
2022/03/03 04:07:02;;;;;;;34.83;15.43;;;2.60;75.70;;;;;;5030410;28;20139;-72
2022/03/03 04:09:27;;;;;;;30.65;15.52;;;2.60;76.10;;;;;;5030744;28;20018;-72
2022/03/03 04:11:53;;;;;;;30.50;14.30;;;2.60;76.20;;;;;;5030264;28;20480;-72
2022/03/03 04:14:18;;;;;;;28.48;14.02;;;2.60;75.80;;;;;;5030291;28;20343;-71
2022/03/03 04:16:44;;;;;;;27.95;14.02;;;2.80;75.70;;;;;;5030465;28;20048;-71
2022/03/03 04:19:09;;;;;;;29.42;13.93;;;2.80;75.20;;;;;;5030274;28;20371;-71
2022/03/03 04:21:35;;;;;;;30.38;13.60;;;2.90;75.00;;;;;;5030788;28;20017;-71
2022/03/03 04:24:01;;;;;;;30.42;13.85;;;3.00;74.50;;;;;;5030414;28;20471;-71
2022/03/03 04:26:26;;;;;;;32.65;14.93;;;3.00;75.10;;;;;;5030142;28;20321;-72
2022/03/03 04:28:52;;;;;;;32.80;14.57;;;3.00;74.30;;;;;;5030056;28;20092;-71
2022/03/03 04:31:17;;;;;;;25.52;13.15;;;3.00;74.70;;;;;;5030267;28;20029;-72
2022/03/03 04:33:43;;;;;;;34.47;15.88;;;2.90;75.90;;;;;;5012484;28;20030;-71
2022/03/03 04:36:09;;;;;;;26.88;14.18;;;2.70;76.20;;;;;;5031506;28;20045;-72
2022/03/03 04:38:34;;;;;;;29.98;13.70;;;2.60;76.50;;;;;;5033918;28;20112;-72
2022/03/03 04:41:00;;;;;;;26.48;13.30;;;2.50;77.10;;;;;;5033943;28;20072;-71
2022/03/03 04:43:26;;;;;;;33.95;14.50;;;2.50;77.10;;;;;;5033884;28;20195;-71
2022/03/03 04:45:51;;;;;;;28.33;13.70;;;2.40;77.20;;;;;;5033788;28;20025;-71
2022/03/03 04:48:17;;;;;;;27.55;15.15;;;2.40;77.80;;;;;;5034475;28;20396;-71
2022/03/03 04:50:43;;;;;;;30.60;14.55;;;2.40;77.40;;;;;;5033991;28;20422;-71
2022/03/03 04:53:08;;;;;;;29.27;13.85;;;2.40;78.20;;;;;;5033802;28;20053;-72
2022/03/03 04:55:34;;;;;;;29.08;14.50;;;2.30;78.20;;;;;;5033815;28;20051;-71
2022/03/03 04:57:59;;;;;;;31.52;14.32;;;2.30;78.30;;;;;;5033664;28;20351;-71
2022/03/03 05:00:25;;;;;;;37.03;14.05;;;2.30;78.70;;;;;;5034120;28;20029;-72
2022/03/03 05:02:50;;;;;;;33.50;16.05;;;2.40;78.80;;;;;;5033719;28;20502;-71
2022/03/03 05:05:16;;;;;;;29.25;14.93;;;2.50;78.70;;;;;;5033634;28;20030;-72
2022/03/03 05:07:41;;;;;;;29.52;14.65;;;2.60;78.60;;;;;;5033385;28;20042;-72
2022/03/03 05:10:08;;;;;;;30.67;14.90;;;2.50;78.50;;;;;;5015870;28;20034;-72
2022/03/03 05:12:33;;;;;;;29.00;14.75;;;2.50;78.40;;;;;;5016210;28;20534;-72
2022/03/03 05:14:59;;;;;;;28.98;14.90;;;2.50;78.20;;;;;;5033382;28;20034;-72
2022/03/03 05:17:25;;;;;;;27.90;14.95;;;2.50;78.60;;;;;;5033652;28;20185;-71
2022/03/03 05:19:50;;;;;;;27.75;13.63;;;2.40;79.00;;;;;;5015795;28;20120;-70
2022/03/03 05:22:16;;;;;;;31.08;14.48;;;2.50;79.00;;;;;;5033269;28;20127;-71
2022/03/03 05:24:42;;;;;;;31.25;14.93;;;2.40;79.20;;;;;;5033316;28;20107;-72
2022/03/03 05:27:08;;;;;;;29.75;14.90;;;2.40;79.00;;;;;;5033594;28;20022;-72
2022/03/03 05:29:34;;;;;;;34.78;15.73;;;2.30;79.50;;;;;;5033183;28;20390;-72
2022/03/03 05:32:00;;;;;;;34.40;14.90;;;2.30;79.50;;;;;;5015627;28;20038;-73
2022/03/03 05:34:29;;;;;;;31.23;15.70;;;2.40;79.30;;;;;;5015537;28;20026;-72
2022/03/03 05:36:54;;;;;;;35.08;16.45;;;2.50;79.70;;;;;;5032917;28;20072;-73
2022/03/03 05:39:22;;;;;;;34.17;15.40;;;2.40;79.90;;;;;;5033353;28;20025;-73
2022/03/03 05:41:47;;;;;;;34.85;15.77;;;2.50;80.00;;;;;;5032862;28;20456;-73
2022/03/03 05:44:13;;;;;;;33.90;16.00;;;2.60;79.70;;;;;;5032954;28;20033;-72
2022/03/03 05:46:42;;;;;;;39.15;17.25;;;2.60;79.70;;;;;;5032556;28;20666;-71
2022/03/03 05:49:08;;;;;;;39.75;18.38;;;2.60;80.20;;;;;;5031771;28;20463;-72
2022/03/03 05:51:35;;;;;;;41.10;19.13;;;2.60;81.20;;;;;;5033041;28;20470;-71
2022/03/03 05:54:01;;;;;;;44.95;19.10;;;2.80;81.80;;;;;;5014884;28;20076;-72
2022/03/03 05:56:31;;;;;;;40.08;17.98;;;2.70;82.00;;;;;;5015116;28;20029;-72
2022/03/03 05:59:01;;;;;;;40.25;18.92;;;2.60;81.90;;;;;;5032491;28;20068;-73
2022/03/03 06:01:28;;;;;;;41.97;17.60;;;2.60;82.40;;;;;;5014919;28;20053;-71
2022/03/03 06:03:59;;;;;;;39.47;18.23;;;2.50;82.30;;;;;;5032512;28;20087;-71
2022/03/03 06:06:28;;;;;;;39.40;19.25;;;2.50;82.10;;;;;;5032825;28;20022;-73
2022/03/03 06:09:12;;;;;;;45.05;19.83;;;2.50;82.70;;;;;;5032417;28;20040;-72
2022/03/03 06:11:55;;;;;;;42.22;18.15;;;2.50;83.80;;;;;;5032317;28;20036;-72
2022/03/03 06:14:28;;;;;;;41.13;19.27;;;2.50;84.00;;;;;;5032364;28;20021;-72
2022/03/03 06:16:57;;;;;;;45.00;18.42;;;2.50;83.60;;;;;;5032270;28;20030;-73
2022/03/03 06:19:23;;;;;;;45.40;19.83;;;2.50;83.30;;;;;;5032211;28;20358;-72
2022/03/03 06:21:49;;;;;;;41.45;18.75;;;2.50;83.90;;;;;;5032091;28;20029;-72
2022/03/03 06:24:15;;;;;;;44.45;19.50;;;2.50;84.20;;;;;;5032694;28;20512;-72
2022/03/03 06:26:40;;;;;;;45.22;19.90;;;2.50;84.80;;;;;;5031912;28;20104;-73
2022/03/03 06:29:06;;;;;;;45.30;19.88;;;2.40;84.50;;;;;;5031529;28;20489;-71
2022/03/03 06:31:32;;;;;;;45.45;19.77;;;2.40;84.60;;;;;;5032075;28;20105;-71
2022/03/03 06:33:58;;;;;;;42.00;19.15;;;2.40;84.60;;;;;;5031778;28;20099;-71
2022/03/03 06:36:24;;;;;;;47.03;22.17;;;2.40;84.60;;;;;;5030134;28;20396;-72
2022/03/03 06:38:50;;;;;;;47.17;21.42;;;2.40;85.40;;;;;;5012060;28;20467;-74
2022/03/03 06:41:16;;;;;;;52.97;21.70;;;2.40;86.40;;;;;;5012269;28;20026;-71
2022/03/03 06:43:42;;;;;;;52.67;21.70;;;2.50;86.90;;;;;;4994824;28;20141;-72
2022/03/03 06:46:09;;;;;;;52.05;22.35;;;2.60;86.30;;;;;;5012350;28;20652;-72
2022/03/03 06:48:34;;;;;;;50.67;21.63;;;2.70;86.40;;;;;;4995269;28;20060;-73
2022/03/03 06:51:05;;;;;;;51.67;21.70;;;2.80;87.30;;;;;;5011955;28;20034;-73
2022/03/03 06:53:35;;;;;;;46.42;21.13;;;2.80;86.00;;;;;;5012018;28;20030;-71
2022/03/03 06:56:05;;;;;;;52.63;22.70;;;2.80;86.00;;;;;;4994433;28;20045;-71
2022/03/03 06:58:32;;;;;;;47.65;20.58;;;2.80;85.80;;;;;;5011180;28;20040;-73
2022/03/03 07:01:00;;;;;;;52.85;23.67;;;2.80;86.00;;;;;;5011732;28;20049;-73
2022/03/03 07:03:29;;;;;;;56.90;24.25;;;2.90;86.20;;;;;;4994877;28;20029;-73
2022/03/03 07:05:56;;;;;;;53.25;24.08;;;2.80;86.80;;;;;;4994526;28;20103;-74
2022/03/03 07:08:21;;;;;;;53.15;23.55;;;2.90;86.30;;;;;;4975614;28;20109;-71
2022/03/03 07:10:48;;;;;;;51.80;22.27;;;2.80;87.10;;;;;;4991988;28;20117;-72
2022/03/03 07:13:17;;;;;;;46.00;20.85;;;2.90;85.90;;;;;;4992083;28;20105;-72
2022/03/03 07:15:49;;;;;;;51.65;22.15;;;3.10;86.30;;;;;;4992152;28;20480;-72
2022/03/03 07:18:18;;;;;;;52.53;21.58;;;3.10;86.20;;;;;;4992577;28;20034;-72
2022/03/03 07:20:44;;;;;;;51.30;21.98;;;3.10;86.00;;;;;;4991914;28;20108;-73
2022/03/03 07:23:35;;;;;;;47.45;20.85;;;3.20;86.50;;;;;;4991934;28;20085;-72
2022/03/03 07:26:05;;;;;;;52.88;22.42;;;3.10;86.20;;;;;;4991788;28;20058;-72
2022/03/03 07:28:32;;;;;;;49.75;22.75;;;3.20;86.30;;;;;;4991545;28;20041;-71
2022/03/03 07:31:08;;;;;;;49.15;22.80;;;3.20;86.20;;;;;;4991828;28;20049;-70
2022/03/03 07:33:46;;;;;;;58.80;21.58;;;3.00;85.50;;;;;;4992207;28;20168;-72
2022/03/03 07:36:13;;;;;;;;;;;3.20;86.60;;;;;;4991046;28;20059;-72
2022/03/03 07:38:39;;;;;;;53.08;20.98;;;3.30;86.50;;;;;;4992094;28;19921;-72
2022/03/03 07:41:07;;;;;;;51.17;23.13;;;3.30;86.20;;;;;;4991832;28;20523;-72
2022/03/03 07:43:32;;;;;;;52.05;23.23;;;3.40;86.10;;;;;;4991642;28;20407;-72
2022/03/03 07:45:58;;;;;;;53.20;23.75;;;3.50;85.70;;;;;;4991534;28;20109;-69
2022/03/03 07:48:24;;;;;;;54.72;22.45;;;3.60;85.70;;;;;;4974617;28;20036;-71
2022/03/03 07:50:50;;;;;;;49.63;23.30;;;3.70;85.20;;;;;;4973096;28;20045;-71
2022/03/03 07:53:16;;;;;;;46.53;21.33;;;3.60;84.80;;;;;;4991297;28;20384;-72
2022/03/03 07:55:50;;;;;;;49.90;21.27;;;3.70;84.40;;;;;;4991441;28;20042;-72
2022/03/03 07:58:21;;;;;;;46.08;21.00;;;3.70;84.20;;;;;;4991384;28;20026;-73
2022/03/03 08:00:53;;;;;;;44.38;21.13;;;3.80;84.10;;;;;;4991128;28;20034;-69
2022/03/03 08:03:20;;;;;;;44.40;20.55;;;3.90;83.70;;;;;;4992139;28;20070;-73
2022/03/03 08:05:53;;;;;;;53.65;22.27;;;4.00;83.10;;;;;;4974398;28;20030;-71
2022/03/03 08:08:25;;;;;;;45.83;21.52;;;4.10;83.40;;;;;;4991231;28;20484;-70
2022/03/03 08:10:57;;;;;;;47.58;20.15;;;4.30;82.50;;;;;;4990409;28;20030;-71
2022/03/03 08:13:26;;;;;;;44.13;19.40;;;4.40;82.30;;;;;;4990958;28;20109;-71
2022/03/03 08:15:52;;;;;;;46.67;20.05;;;4.60;81.50;;;;;;4991201;28;20026;-71
2022/03/03 08:18:19;;;;;;;41.15;18.58;;;4.50;81.00;;;;;;4990351;28;20034;-71
2022/03/03 08:20:44;;;;;;;40.25;20.15;;;4.60;80.70;;;;;;4990046;28;20045;-71
2022/03/03 08:23:11;;;;;;;41.30;19.80;;;4.60;80.00;;;;;;4990681;28;20031;-71
2022/03/03 08:25:37;;;;;;;38.40;19.15;;;4.60;79.70;;;;;;4990676;28;20031;-71
2022/03/03 08:28:04;;;;;;;35.10;18.42;;;4.70;79.70;;;;;;4990806;28;20049;-74
2022/03/03 08:30:30;;;;;;;38.30;19.45;;;4.80;79.50;;;;;;4991525;28;20027;-71
2022/03/03 08:33:19;;;;;;;41.10;19.40;;;4.90;79.30;;;;;;4990886;28;20036;-71
2022/03/03 08:35:54;;;;;;;40.92;19.58;;;4.90;79.70;;;;;;4970925;28;20467;-69
2022/03/03 08:38:31;;;;;;;41.60;21.00;;;5.00;79.10;;;;;;4971986;28;20042;-71
2022/03/03 08:40:58;;;;;;;37.72;20.00;;;5.10;78.90;;;;;;4972296;28;20034;-71
2022/03/03 08:43:27;;;;;;;46.95;21.65;;;5.20;79.20;;;;;;4971369;28;20122;-71
2022/03/03 08:45:56;;;;;;;44.50;21.42;;;5.20;79.50;;;;;;4971624;28;20146;-72
2022/03/03 08:48:26;;;;;;;51.22;23.67;;;5.30;79.80;;;;;;4973184;28;20027;-72
2022/03/03 08:50:51;;;;;;;42.38;21.90;;;5.40;80.10;;;;;;4972085;28;20035;-71
2022/03/03 08:53:17;;;;;;;44.92;21.73;;;5.50;80.00;;;;;;4971742;28;20436;-71
2022/03/03 08:55:43;;;;;;;45.10;21.13;;;5.70;80.90;;;;;;4971254;28;20122;-70
2022/03/03 08:58:10;;;;;;;45.55;22.58;;;5.80;79.40;;;;;;4971162;28;20042;-74
2022/03/03 09:00:36;;;;;;;44.08;21.23;;;6.30;79.80;;;;;;4970493;28;20060;-71
2022/03/03 09:03:02;;;;;;;48.25;22.27;;;8.20;78.00;;;;;;4972215;28;20035;-74
2022/03/03 09:05:28;;;;;;;43.42;20.67;;;10.20;71.80;;;;;;4971254;28;20031;-73
2022/03/03 09:07:54;;;;;;;40.97;21.13;;;11.70;64.30;;;;;;4971407;28;20106;-72
2022/03/03 09:10:20;;;;;;;44.17;20.55;;;13.40;62.60;;;;;;4971831;28;20035;-73
2022/03/03 09:12:46;;;;;;;43.22;21.02;;;14.40;57.60;;;;;;4971936;28;20073;-73
2022/03/03 09:15:12;;;;;;;39.42;19.27;;;15.60;56.40;;;;;;4972228;28;20019;-71
2022/03/03 09:17:38;;;;;;;40.33;19.67;;;17.10;54.10;;;;;;4971938;28;20432;-73
2022/03/03 09:20:07;;;;;;;37.45;20.55;;;17.20;49.30;;;;;;4970663;28;20031;-73
2022/03/03 09:22:33;;;;;;;40.45;19.50;;;18.20;47.50;;;;;;4972485;28;20074;-74
2022/03/03 09:24:59;;;;;;;46.53;24.05;;;18.80;47.30;;;;;;4975307;28;20289;-73
2022/03/03 09:27:25;;;;;;;54.25;28.30;;;19.30;45.00;;;;;;4974998;28;20038;-73
2022/03/03 09:29:51;;;;;;;44.63;22.10;;;19.50;45.10;;;;;;4989483;28;20050;-74
2022/03/03 09:32:18;;;;;;;42.47;21.35;;;20.20;43.00;;;;;;4974469;28;20039;-73
2022/03/03 09:34:45;;;;;;;38.72;20.30;;;20.60;42.00;;;;;;4974741;28;20035;-73
2022/03/03 09:37:14;;;;;;;43.45;22.52;;;20.70;41.20;;;;;;4989981;28;20077;-74
2022/03/03 09:39:40;;;;;;;37.13;21.08;;;21.10;40.50;;;;;;4976347;28;20038;-73
2022/03/03 09:42:08;;;;;;;38.40;22.40;;;21.30;39.30;;;;;;4993960;28;20392;-71
2022/03/03 09:44:34;;;;;;;38.28;21.30;;;21.50;39.60;;;;;;4993391;28;20034;-72
2022/03/03 09:46:59;;;;;;;36.83;21.50;;;21.80;39.40;;;;;;4993369;28;20059;-71
2022/03/03 09:49:25;;;;;;;42.97;22.35;;;22.10;39.00;;;;;;4994075;28;20480;-71
2022/03/03 09:51:51;;;;;;;35.72;20.92;;;22.90;38.20;;;;;;4993903;28;20026;-73
2022/03/03 09:54:17;;;;;;;33.40;20.02;;;23.00;37.00;;;;;;4994470;28;20104;-71
2022/03/03 09:56:45;;;;;;;35.88;21.63;;;23.30;37.20;;;;;;4994010;28;20027;-73
2022/03/03 09:59:11;;;;;;;37.22;21.08;;;23.30;36.70;;;;;;4993245;28;20031;-70
2022/03/03 10:01:39;;;;;;;35.45;20.92;;;23.30;36.10;;;;;;4993429;28;20483;-73
2022/03/03 10:04:20;;;;;;;37.17;22.67;;;23.50;36.50;;;;;;4993256;28;20035;-74
2022/03/03 10:06:46;;;;;;;43.83;22.55;;;23.20;36.40;;;;;;4976042;28;20038;-71
2022/03/03 10:09:12;;;;;;;41.33;22.85;;;23.20;36.00;;;;;;4976391;28;20022;-73
2022/03/03 10:11:47;;;;;;;39.15;23.30;;;23.40;36.00;;;;;;4993080;28;20376;-72
2022/03/03 10:14:13;;;;;;;42.40;24.38;;;23.40;36.10;;;;;;4993780;28;20045;-72
2022/03/03 10:16:47;;;;;;;42.15;25.42;;;23.40;36.50;;;;;;4993624;28;20023;-72
2022/03/03 10:19:13;;;;;;;40.63;23.88;;;23.80;36.90;;;;;;4993569;28;20030;-73
2022/03/03 10:21:39;;;;;;;38.38;23.77;;;23.80;36.00;;;;;;4976063;28;20314;-71
2022/03/03 10:24:28;;;;;;;34.28;22.52;;;23.60;36.10;;;;;;5001284;28;20025;-73
2022/03/03 10:27:06;;;;;;;39.50;23.63;;;23.60;35.80;;;;;;5013207;28;20022;-74
2022/03/03 10:29:34;;;;;;;36.13;21.00;;;23.80;35.40;;;;;;5012592;28;20022;-72
2022/03/03 10:32:00;;;;;;;39.10;22.13;;;23.90;35.40;;;;;;5012336;28;20030;-76
2022/03/03 10:34:27;;;;;;;34.47;23.02;;;24.40;35.20;;;;;;5012142;28;20033;-74
2022/03/03 10:36:56;;;;;;;37.77;20.43;;;24.30;34.30;;;;;;5012179;28;20270;-74
2022/03/03 10:39:22;;;;;;;32.72;20.05;;;24.10;34.40;;;;;;5012669;28;20041;-73
2022/03/03 10:41:53;;;;;;;31.75;20.23;;;24.10;34.00;;;;;;5012152;28;20034;-75
2022/03/03 10:44:29;;;;;;;33.50;20.90;;;24.50;34.00;;;;;;5012178;28;20034;-74
2022/03/03 10:47:09;;;;;;;42.38;24.73;;;24.80;33.90;;;;;;5011900;28;20068;-74
2022/03/03 10:49:47;;;;;;;35.67;20.98;;;24.90;33.20;;;;;;5012241;28;20026;-76
2022/03/03 10:52:13;;;;;;;;;;;25.10;32.90;;;;;;4995623;28;20025;-75
2022/03/03 10:54:55;;;;;;;30.42;18.13;;;24.90;32.60;;;;;;5012157;28;19905;-75
2022/03/03 10:57:36;;;;;;;30.30;17.50;;;25.20;31.80;;;;;;5013057;28;20029;-75
2022/03/03 11:00:25;;;;;;;24.55;16.85;;;25.00;32.10;;;;;;5012425;28;20072;-74
2022/03/03 11:02:57;;;;;;;22.73;15.27;;;24.80;31.70;;;;;;4994637;28;20026;-74
2022/03/03 11:05:24;;;;;;;31.83;19.50;;;24.20;31.10;;;;;;5012286;28;20116;-75
2022/03/03 11:07:51;;;;;;;35.53;22.83;;;24.70;31.10;;;;;;4994624;28;20390;-74
2022/03/03 11:10:18;;;;;;;21.40;15.00;;;24.80;30.80;;;;;;5011862;28;20044;-73
2022/03/03 11:12:45;;;;;;;24.15;15.82;;;24.70;30.80;;;;;;5011922;28;20368;-75
2022/03/03 11:15:16;;;;;;;27.05;16.98;;;24.70;30.80;;;;;;5012203;28;20087;-75
2022/03/03 11:17:43;;;;;;;26.63;17.70;;;24.30;30.60;;;;;;5012101;28;20165;-75
2022/03/03 11:20:14;;;;;;;25.73;17.30;;;24.10;31.50;;;;;;4994450;28;20041;-75
2022/03/03 11:22:41;;;;;;;26.55;16.55;;;24.10;31.30;;;;;;5011564;28;20040;-76
2022/03/03 11:25:09;;;;;;;29.02;17.15;;;24.10;31.10;;;;;;5011596;28;20044;-76
2022/03/03 11:27:39;;;;;;;31.13;18.00;;;24.10;31.30;;;;;;4994539;28;20080;-74
2022/03/03 11:30:35;;;;;;;28.88;17.63;;;24.00;31.60;;;;;;5011555;28;20116;-72
2022/03/03 11:33:20;;;;;;;27.98;17.40;;;24.10;31.90;;;;;;5002982;28;20041;-73
2022/03/03 11:35:48;;;;;;;29.02;18.38;;;24.20;31.70;;;;;;5011308;28;20046;-71
2022/03/03 11:38:15;;;;;;;;;;;24.00;31.90;;;;;;4994373;28;20041;-73
2022/03/03 11:40:50;;;;;;;30.25;16.88;;;23.60;32.00;;;;;;5011297;28;19913;-72
2022/03/03 11:43:16;;;;;;;26.83;17.13;;;23.40;32.00;;;;;;5011268;28;20113;-73
2022/03/03 11:45:49;;;;;;;24.40;16.55;;;23.00;32.00;;;;;;5011420;28;20188;-72
2022/03/03 11:48:15;;;;;;;27.70;16.70;;;22.10;32.00;;;;;;4994227;28;20041;-72
2022/03/03 11:50:43;;;;;;;27.42;17.45;;;21.30;32.40;;;;;;5011015;28;20041;-71
2022/03/03 11:53:08;;;;;;;47.78;27.17;;;20.70;32.70;;;;;;4993391;28;20084;-71
2022/03/03 11:55:44;;;;;;;31.73;19.13;;;20.00;33.50;;;;;;5011045;28;20112;-71
2022/03/03 11:58:12;;;;;;;26.52;15.45;;;19.20;34.30;;;;;;5010845;28;20108;-71
2022/03/03 12:01:06;;;;;;;37.50;21.30;;;18.60;34.20;;;;;;4993689;28;20118;-71
2022/03/03 12:03:52;;;;;;;28.85;18.77;;;18.10;34.40;;;;;;5011902;28;20533;-72
2022/03/03 12:06:20;;;;;;;28.55;16.83;;;17.70;34.70;;;;;;5011261;28;20092;-71
2022/03/03 12:08:46;;;;;;;30.05;16.42;;;17.30;35.00;;;;;;5011166;28;20065;-71
2022/03/03 12:11:16;;;;;;;27.17;16.10;;;17.00;35.30;;;;;;5011325;28;20065;-72
2022/03/03 12:13:46;;;;;;;29.67;17.27;;;16.60;35.80;;;;;;5011158;28;20444;-71
2022/03/03 12:16:34;;;;;;;34.22;19.80;;;16.40;36.80;;;;;;5010812;28;20551;-72
2022/03/03 12:19:00;;;;;;;31.80;17.85;;;16.20;38.00;;;;;;5010751;28;20713;-72
2022/03/03 12:21:44;;;;;;;28.92;17.17;;;15.90;38.50;;;;;;5011502;28;20025;-71
2022/03/03 12:24:13;;;;;;;33.38;18.55;;;15.70;38.60;;;;;;5011432;28;20033;-72
2022/03/03 12:26:56;;;;;;;31.27;16.90;;;15.70;38.80;;;;;;5010980;28;20108;-70
2022/03/03 12:29:37;;;;;;;32.00;16.95;;;15.40;38.40;;;;;;5010854;28;20368;-71
2022/03/03 12:32:25;;;;;;;35.25;17.30;;;15.40;38.70;;;;;;4993150;28;20109;-70
2022/03/03 12:34:54;;;;;;;34.75;16.80;;;15.20;38.60;;;;;;5010924;28;20034;-71
2022/03/03 12:37:20;;;;;;;28.42;15.27;;;15.10;39.10;;;;;;5010414;28;20092;-71
2022/03/03 12:39:54;;;;;;;26.17;13.10;;;15.10;38.50;;;;;;5010184;28;20065;-70